createdAt,value
2022-10-19T00:00:46.580Z,6.93
2022-10-19T00:03:13.037Z,6.90
2022-10-19T00:05:39.490Z,6.80
2022-10-19T00:08:06.058Z,6.47
2022-10-19T00:10:32.760Z,6.88
2022-10-19T00:12:59.395Z,7.55
2022-10-19T00:15:25.868Z,7.10
2022-10-19T00:17:52.934Z,7.15
2022-10-19T00:20:19.356Z,7.25
2022-10-19T00:22:49.349Z,7.32
2022-10-19T00:25:15.915Z,7.03
2022-10-19T00:27:42.531Z,7.53
2022-10-19T00:30:09.206Z,6.63
2022-10-19T00:32:35.758Z,6.75
2022-10-19T00:35:03.878Z,7.03
2022-10-19T00:37:30.514Z,7.60
2022-10-19T00:39:56.957Z,7.05
2022-10-19T00:42:23.552Z,7.15
2022-10-19T00:44:50.081Z,7.43
2022-10-19T00:47:18.963Z,8.30
2022-10-19T00:49:46.659Z,8.18
2022-10-19T00:52:14.493Z,9.05
2022-10-19T00:54:45.261Z,9.23
2022-10-19T00:57:12.091Z,8.98
2022-10-19T00:59:39.668Z,9.60
2022-10-19T01:02:08.301Z,9.48
2022-10-19T01:04:37.155Z,9.80
2022-10-19T01:07:08.306Z,10.32
2022-10-19T01:09:35.186Z,9.73
2022-10-19T01:12:22.695Z,10.27
2022-10-19T01:14:55.451Z,10.30
2022-10-19T01:17:31.277Z,10.45
2022-10-19T01:20:13.217Z,11.30
2022-10-19T01:22:54.986Z,10.80
2022-10-19T01:25:39.094Z,10.38
2022-10-19T01:30:53.065Z,10.60
2022-10-19T01:33:22.488Z,10.30
2022-10-19T01:35:48.971Z,10.45
2022-10-19T01:38:23.569Z,11.50
2022-10-19T01:40:56.120Z,11.18
2022-10-19T01:43:22.864Z,10.98
2022-10-19T01:45:57.510Z,11.05
2022-10-19T01:48:28.574Z,12.02
2022-10-19T01:51:00.541Z,11.63
2022-10-19T01:53:28.578Z,10.20
2022-10-19T01:55:55.751Z,10.82
2022-10-19T01:58:25.003Z,12.02
2022-10-19T02:00:53.083Z,11.02
2022-10-19T02:03:19.966Z,12.95
2022-10-19T02:05:47.145Z,12.07
2022-10-19T02:08:22.766Z,11.63
2022-10-19T02:10:50.288Z,12.38
2022-10-19T02:13:17.021Z,12.05
2022-10-19T02:15:46.065Z,11.85
2022-10-19T02:18:17.732Z,12.75
2022-10-19T02:20:44.417Z,11.70
2022-10-19T02:23:11.421Z,11.20
2022-10-19T02:25:37.981Z,11.18
2022-10-19T02:28:04.917Z,11.35
2022-10-19T02:30:31.419Z,11.32
2022-10-19T02:32:57.970Z,11.60
2022-10-19T02:35:24.512Z,11.35
2022-10-19T02:37:51.013Z,11.48
2022-10-19T02:40:17.622Z,11.02
2022-10-19T02:42:48.551Z,11.48
2022-10-19T02:45:29.107Z,10.63
2022-10-19T02:47:58.333Z,11.88
2022-10-19T02:50:24.825Z,12.60
2022-10-19T02:52:51.414Z,11.60
2022-10-19T02:55:17.997Z,12.40
2022-10-19T02:57:44.531Z,11.15
2022-10-19T03:00:11.362Z,14.55
2022-10-19T03:02:37.842Z,10.63
2022-10-19T03:05:06.644Z,11.15
2022-10-19T03:07:33.340Z,11.65
2022-10-19T03:10:00.077Z,12.40
2022-10-19T03:12:26.551Z,12.30
2022-10-19T03:14:53.034Z,11.10
2022-10-19T03:17:19.734Z,11.32
2022-10-19T03:19:46.193Z,11.30
2022-10-19T03:22:13.193Z,9.80
2022-10-19T03:24:39.732Z,9.82
2022-10-19T03:27:06.290Z,10.88
2022-10-19T03:29:32.823Z,11.02
2022-10-19T03:31:59.374Z,10.57
2022-10-19T03:34:25.882Z,10.82
2022-10-19T03:36:52.456Z,11.27
2022-10-19T03:39:18.915Z,10.15
2022-10-19T03:41:45.662Z,11.52
2022-10-19T03:44:12.150Z,11.05
2022-10-19T03:46:41.865Z,11.98
2022-10-19T03:49:09.181Z,9.85
2022-10-19T03:51:36.279Z,10.50
2022-10-19T03:54:04.795Z,11.18
2022-10-19T03:56:32.453Z,11.55
2022-10-19T03:59:00.116Z,11.43
2022-10-19T04:01:31.684Z,11.38
2022-10-19T04:04:00.925Z,11.60
2022-10-19T04:06:28.931Z,12.32
2022-10-19T04:08:55.844Z,12.10
2022-10-19T04:11:23.776Z,11.60
2022-10-19T04:13:53.592Z,11.88
2022-10-19T04:16:20.871Z,12.00
2022-10-19T04:18:47.681Z,11.50
2022-10-19T04:21:20.658Z,11.10
2022-10-19T04:23:47.275Z,11.55
2022-10-19T04:26:13.864Z,11.77
2022-10-19T04:28:40.391Z,11.40
2022-10-19T04:31:07.104Z,11.48
2022-10-19T04:33:34.194Z,12.50
2022-10-19T04:36:01.531Z,12.73
2022-10-19T04:38:29.298Z,13.00
2022-10-19T04:40:56.512Z,13.13
2022-10-19T04:43:23.211Z,12.98
2022-10-19T04:45:49.725Z,12.55
2022-10-19T04:48:16.478Z,12.75
2022-10-19T04:50:42.977Z,13.02
2022-10-19T04:53:09.502Z,13.43
2022-10-19T04:55:40.416Z,12.63
2022-10-19T04:58:06.817Z,14.10
2022-10-19T05:00:33.686Z,13.77
2022-10-19T05:03:00.166Z,14.13
2022-10-19T05:05:29.195Z,14.18
2022-10-19T05:07:55.702Z,14.13
2022-10-19T05:10:22.353Z,14.27
2022-10-19T05:12:48.879Z,14.18
2022-10-19T05:15:15.493Z,14.57
2022-10-19T05:17:42.128Z,13.52
2022-10-19T05:20:08.920Z,13.60
2022-10-19T05:22:35.627Z,13.50
2022-10-19T05:25:02.124Z,13.50
2022-10-19T05:27:28.610Z,12.47
2022-10-19T05:29:55.168Z,15.70
2022-10-19T05:32:21.771Z,13.23
2022-10-19T05:34:48.403Z,14.52
2022-10-19T05:37:15.870Z,13.00
2022-10-19T05:39:42.424Z,21.33
2022-10-19T05:42:09.008Z,13.77
2022-10-19T05:44:36.182Z,15.02
2022-10-19T05:47:02.764Z,13.13
2022-10-19T05:49:29.514Z,13.50
2022-10-19T05:51:56.042Z,11.55
2022-10-19T05:54:24.989Z,11.27
2022-10-19T05:56:54.263Z,11.55
2022-10-19T05:59:21.156Z,10.60
2022-10-19T06:01:48.520Z,11.07
2022-10-19T06:06:43.026Z,9.90
2022-10-19T06:09:10.077Z,10.55
2022-10-19T06:11:39.672Z,12.77
2022-10-19T06:14:08.185Z,10.95
2022-10-19T06:16:34.898Z,10.70
2022-10-19T06:19:01.587Z,12.43
2022-10-19T06:21:29.665Z,10.90
2022-10-19T06:23:57.439Z,13.60
2022-10-19T06:26:24.042Z,13.68
2022-10-19T06:28:51.256Z,13.02
2022-10-19T06:31:17.900Z,12.02
2022-10-19T06:33:47.252Z,12.95
2022-10-19T06:36:17.322Z,12.93
2022-10-19T06:38:44.397Z,12.35
2022-10-19T06:41:11.342Z,13.32
2022-10-19T06:43:38.222Z,13.55
2022-10-19T06:46:09.047Z,12.70
2022-10-19T06:48:35.741Z,13.20
2022-10-19T06:51:06.255Z,12.50
2022-10-19T06:53:34.520Z,12.02
2022-10-19T06:56:02.202Z,12.38
2022-10-19T06:58:28.786Z,11.93
2022-10-19T07:00:57.301Z,12.65
2022-10-19T07:03:24.801Z,12.55
2022-10-19T07:05:55.213Z,12.13
2022-10-19T07:08:25.198Z,14.77
2022-10-19T07:10:52.471Z,11.75
2022-10-19T07:13:19.414Z,13.23
2022-10-19T07:15:46.030Z,13.10
2022-10-19T07:18:15.513Z,11.30
2022-10-19T07:20:42.195Z,11.23
2022-10-19T07:23:08.738Z,11.88
2022-10-19T07:25:36.507Z,9.88
2022-10-19T07:28:03.161Z,10.00
2022-10-19T07:30:29.706Z,9.23
2022-10-19T07:32:56.186Z,8.93
2022-10-19T07:35:22.724Z,9.25
2022-10-19T07:37:49.211Z,9.35
2022-10-19T07:40:15.879Z,9.77
2022-10-19T07:42:42.579Z,10.05
2022-10-19T07:45:09.411Z,9.85
2022-10-19T07:47:36.184Z,10.25
2022-10-19T07:50:02.862Z,9.50
2022-10-19T07:52:31.832Z,9.93
2022-10-19T07:55:00.947Z,11.38
2022-10-19T07:57:27.460Z,10.15
2022-10-19T07:59:53.996Z,9.68
2022-10-19T08:02:20.617Z,9.30
2022-10-19T08:05:06.261Z,9.32
2022-10-19T08:07:34.007Z,9.77
2022-10-19T08:10:00.544Z,9.50
2022-10-19T08:12:27.085Z,8.77
2022-10-19T08:14:53.975Z,10.48
2022-10-19T08:17:20.454Z,8.65
2022-10-19T08:19:47.181Z,8.93
2022-10-19T08:22:13.872Z,9.65
2022-10-19T08:24:40.377Z,9.63
2022-10-19T08:27:09.952Z,7.97
2022-10-19T08:29:36.476Z,7.72
2022-10-19T08:32:02.980Z,7.63
2022-10-19T08:34:29.659Z,7.40
2022-10-19T08:36:56.158Z,7.47
2022-10-19T08:39:22.752Z,6.70
2022-10-19T08:44:27.390Z,7.18
2022-10-19T08:47:12.987Z,6.70
2022-10-19T08:49:40.833Z,7.35
2022-10-19T08:52:30.769Z,6.45
2022-10-19T08:55:09.205Z,5.97
2022-10-19T08:57:36.289Z,5.43
2022-10-19T09:00:15.385Z,5.53
2022-10-19T09:03:00.686Z,5.63
2022-10-19T09:05:33.027Z,6.10
2022-10-19T09:07:59.883Z,5.13
2022-10-19T09:10:32.452Z,4.75
2022-10-19T09:13:00.177Z,4.93
2022-10-19T09:15:30.062Z,4.72
2022-10-19T09:17:56.754Z,4.82
2022-10-19T09:20:26.804Z,5.45
2022-10-19T09:23:06.729Z,5.28
2022-10-19T09:25:38.434Z,5.07
2022-10-19T09:28:27.313Z,4.72
2022-10-19T09:30:58.671Z,4.22
2022-10-19T09:33:36.067Z,4.53
2022-10-19T09:36:04.341Z,4.07
2022-10-19T09:38:31.868Z,4.25
2022-10-19T09:40:59.248Z,4.15
2022-10-19T09:43:27.324Z,4.22
2022-10-19T09:45:55.867Z,3.72
2022-10-19T09:48:22.749Z,5.80
2022-10-19T09:50:52.043Z,3.85
2022-10-19T09:53:20.134Z,3.78
2022-10-19T09:56:06.851Z,4.70
2022-10-19T09:58:34.452Z,3.70
2022-10-19T10:01:02.201Z,4.00
2022-10-19T10:03:30.596Z,4.18
2022-10-19T10:06:04.980Z,3.80
2022-10-19T10:08:33.435Z,3.95
2022-10-19T10:11:29.391Z,4.70
2022-10-19T10:13:56.660Z,4.00
2022-10-19T10:16:24.710Z,4.10
2022-10-19T10:18:51.456Z,3.83
2022-10-19T10:21:41.311Z,5.50
2022-10-19T10:24:10.823Z,4.43
2022-10-19T10:26:41.940Z,4.00
2022-10-19T10:29:20.850Z,3.90
2022-10-19T10:31:55.415Z,3.95
2022-10-19T10:34:51.810Z,4.20
2022-10-19T10:37:38.247Z,3.13
2022-10-19T10:40:06.069Z,2.70
2022-10-19T10:42:35.288Z,3.20
2022-10-19T10:45:03.087Z,2.92
2022-10-19T10:47:29.905Z,2.88
2022-10-19T10:49:56.433Z,3.08
2022-10-19T10:52:23.566Z,2.67
2022-10-19T10:54:59.609Z,2.22
2022-10-19T10:57:28.420Z,3.20
2022-10-19T11:00:02.396Z,3.00
2022-10-19T11:02:35.059Z,2.60
2022-10-19T11:05:07.681Z,3.28
2022-10-19T11:07:35.080Z,2.75
2022-10-19T11:10:14.566Z,2.70
2022-10-19T11:12:44.255Z,2.92
2022-10-19T11:15:22.989Z,3.40
2022-10-19T11:17:59.124Z,2.55
2022-10-19T11:20:27.717Z,2.88
2022-10-19T11:23:12.971Z,2.75
2022-10-19T11:25:58.718Z,2.35
2022-10-19T11:28:47.441Z,2.70
2022-10-19T11:31:37.314Z,2.38
2022-10-19T11:34:26.006Z,2.45
2022-10-19T11:36:57.407Z,2.35
2022-10-19T11:39:33.084Z,2.47
2022-10-19T11:42:09.409Z,3.10
2022-10-19T11:44:45.911Z,2.50
2022-10-19T11:47:31.316Z,2.20
2022-10-19T11:52:46.360Z,3.00
2022-10-19T11:55:15.905Z,2.88
2022-10-19T11:58:05.846Z,2.63
2022-10-19T12:00:39.806Z,2.40
2022-10-19T12:03:14.197Z,2.65
2022-10-19T12:05:59.774Z,2.38
2022-10-19T12:08:45.304Z,3.20
2022-10-19T12:11:12.010Z,2.65
2022-10-19T12:13:47.619Z,2.42
2022-10-19T12:16:14.900Z,2.60
2022-10-19T12:18:43.440Z,2.47
2022-10-19T12:21:23.443Z,2.30
2022-10-19T12:23:55.185Z,1.90
2022-10-19T12:26:22.453Z,1.60
2022-10-19T12:29:03.160Z,1.80
2022-10-19T12:31:30.231Z,1.80
2022-10-19T12:34:08.081Z,1.85
2022-10-19T12:36:53.396Z,2.20
2022-10-19T12:39:35.236Z,1.52
2022-10-19T12:42:20.503Z,1.75
2022-10-19T12:45:01.271Z,1.73
2022-10-19T12:47:27.720Z,1.90
2022-10-19T12:49:58.100Z,1.67
2022-10-19T12:52:38.652Z,1.48
2022-10-19T12:55:24.697Z,1.65
2022-10-19T12:58:01.948Z,1.85
2022-10-19T13:00:36.175Z,1.55
2022-10-19T13:03:07.747Z,1.40
2022-10-19T13:05:34.747Z,1.80
2022-10-19T13:08:02.543Z,1.67
2022-10-19T13:10:30.551Z,1.63
2022-10-19T13:12:57.019Z,1.60
2022-10-19T13:15:35.662Z,1.67
2022-10-19T13:18:02.587Z,1.35
2022-10-19T13:20:29.384Z,1.90
2022-10-19T13:22:59.074Z,1.67
2022-10-19T13:25:29.443Z,1.65
2022-10-19T13:27:57.215Z,1.40
2022-10-19T13:30:36.004Z,1.52
2022-10-19T13:33:21.021Z,1.90
2022-10-19T13:35:47.487Z,1.58
2022-10-19T13:38:17.014Z,1.70
2022-10-19T13:40:49.682Z,2.20
2022-10-19T13:43:27.462Z,1.85
2022-10-19T13:46:06.009Z,2.10
2022-10-19T13:48:58.541Z,1.80
2022-10-19T13:51:48.040Z,2.30
2022-10-19T13:54:20.738Z,1.23
2022-10-19T13:56:50.177Z,1.75
2022-10-19T14:02:01.267Z,1.02
2022-10-19T14:04:39.379Z,0.73
2022-10-19T14:07:19.167Z,0.70
2022-10-19T14:09:45.649Z,0.60
2022-10-19T14:12:15.246Z,0.70
2022-10-19T14:19:45.295Z,0.70
2022-10-19T14:22:24.271Z,0.70
2022-10-19T14:24:50.924Z,0.68
2022-10-19T14:27:19.646Z,0.82
2022-10-19T14:29:48.180Z,0.73
2022-10-19T14:32:14.912Z,1.30
2022-10-19T14:34:42.249Z,0.90
2022-10-19T14:37:19.920Z,1.35
2022-10-19T14:40:05.383Z,1.30
2022-10-19T14:42:45.444Z,1.33
2022-10-19T14:45:25.948Z,1.10
2022-10-19T14:47:52.704Z,0.90
2022-10-19T14:50:21.457Z,1.30
2022-10-19T14:52:49.765Z,1.20
2022-10-19T14:55:18.124Z,1.42
2022-10-19T14:57:47.924Z,1.33
2022-10-19T15:00:19.282Z,1.45
2022-10-19T15:02:48.647Z,1.98
2022-10-19T15:05:20.509Z,2.08
2022-10-19T15:07:47.301Z,2.38
2022-10-19T15:10:21.873Z,2.33
2022-10-19T15:12:50.535Z,2.38
2022-10-19T15:15:26.408Z,2.60
2022-10-19T15:17:54.441Z,2.15
2022-10-19T15:20:26.800Z,1.88
2022-10-19T15:22:53.581Z,1.90
2022-10-19T15:25:29.882Z,1.77
2022-10-19T15:27:57.853Z,2.55
2022-10-19T15:30:26.240Z,2.25
2022-10-19T15:33:02.014Z,2.47
2022-10-19T15:35:28.513Z,2.10
2022-10-19T15:38:06.348Z,2.22
2022-10-19T15:40:33.903Z,2.47
2022-10-19T15:43:00.852Z,2.28
2022-10-19T15:45:32.810Z,2.50
2022-10-19T15:48:34.921Z,2.40
2022-10-19T15:51:01.369Z,2.05
2022-10-19T15:53:27.870Z,2.30
2022-10-19T15:55:54.502Z,2.70
2022-10-19T15:58:21.698Z,2.38
2022-10-19T16:00:48.528Z,2.95
2022-10-19T16:03:17.930Z,3.05
2022-10-19T16:05:47.447Z,3.85
2022-10-19T16:08:14.134Z,3.25
2022-10-19T16:10:40.891Z,4.03
2022-10-19T16:13:07.473Z,3.55
2022-10-19T16:15:34.120Z,3.00
2022-10-19T16:18:00.896Z,3.97
2022-10-19T16:20:28.152Z,3.53
2022-10-19T16:22:54.988Z,4.30
2022-10-19T16:25:21.872Z,4.68
2022-10-19T16:27:49.174Z,4.47
2022-10-19T16:30:16.080Z,4.18
2022-10-19T16:35:10.494Z,4.55
2022-10-19T16:37:37.797Z,3.70
2022-10-19T16:40:05.566Z,3.97
2022-10-19T16:42:34.715Z,4.82
2022-10-19T16:45:02.676Z,4.95
2022-10-19T16:47:32.553Z,6.00
2022-10-19T16:50:00.952Z,5.60
2022-10-19T16:52:29.037Z,7.57
2022-10-19T16:54:56.660Z,6.47
2022-10-19T16:57:25.168Z,6.40
2022-10-19T17:02:21.427Z,6.68
2022-10-19T17:04:48.868Z,7.10
2022-10-19T17:07:17.339Z,7.43
2022-10-19T17:09:44.909Z,7.03
2022-10-19T17:12:12.464Z,8.13
2022-10-19T17:14:40.599Z,8.65
2022-10-19T17:17:09.092Z,7.22
2022-10-19T17:19:36.835Z,6.28
2022-10-19T17:22:06.189Z,4.75
2022-10-19T17:24:32.972Z,4.70
2022-10-19T17:27:02.398Z,5.13
2022-10-19T17:29:29.845Z,4.28
2022-10-19T17:31:57.041Z,4.20
2022-10-19T17:34:24.453Z,3.60
2022-10-19T17:36:51.737Z,3.72
2022-10-19T17:39:25.788Z,3.22
2022-10-19T17:41:57.694Z,3.25
2022-10-19T17:44:26.498Z,3.40
2022-10-19T17:46:53.017Z,2.35
2022-10-19T17:49:19.644Z,3.20
2022-10-19T17:51:46.390Z,2.65
2022-10-19T17:54:15.868Z,2.67
2022-10-19T17:56:45.434Z,3.55
2022-10-19T17:59:12.307Z,3.65
2022-10-19T18:01:39.273Z,3.70
2022-10-19T18:04:08.596Z,2.80
2022-10-19T18:06:36.367Z,3.28
2022-10-19T18:09:04.135Z,3.00
2022-10-19T18:11:32.172Z,2.55
2022-10-19T18:14:00.980Z,2.83
2022-10-19T18:16:35.020Z,3.00
2022-10-19T18:19:02.848Z,2.70
2022-10-19T18:21:31.380Z,4.07
2022-10-19T18:23:59.169Z,3.42
2022-10-19T18:26:27.422Z,3.30
2022-10-19T18:28:55.439Z,3.20
2022-10-19T18:31:25.818Z,3.20
2022-10-19T18:33:56.598Z,3.20
2022-10-19T18:36:23.611Z,3.38
2022-10-19T18:38:51.116Z,3.88
2022-10-19T18:41:18.738Z,3.80
2022-10-19T18:43:49.916Z,3.60
2022-10-19T18:46:18.353Z,4.75
2022-10-19T18:48:45.079Z,4.43
2022-10-19T18:51:11.736Z,3.53
2022-10-19T18:53:38.274Z,3.78
2022-10-19T18:56:09.407Z,3.65
2022-10-19T18:58:36.165Z,3.90
2022-10-19T19:01:03.958Z,3.88
2022-10-19T19:03:30.521Z,4.22
2022-10-19T19:06:07.482Z,3.30
2022-10-19T19:08:34.113Z,3.05
2022-10-19T19:11:17.272Z,3.70
2022-10-19T19:13:51.189Z,2.53
2022-10-19T19:16:19.105Z,2.92
2022-10-19T19:18:45.822Z,2.90
2022-10-19T19:21:13.922Z,2.83
2022-10-19T19:23:40.517Z,2.80
2022-10-19T19:26:07.737Z,2.97
2022-10-19T19:28:36.583Z,3.42
2022-10-19T19:31:06.484Z,3.00
2022-10-19T19:33:40.354Z,3.17
2022-10-19T19:36:07.717Z,2.95
2022-10-19T19:38:34.554Z,3.03
2022-10-19T19:41:03.989Z,3.40
2022-10-19T19:43:31.410Z,3.90
2022-10-19T19:46:00.985Z,3.92
2022-10-19T19:48:29.975Z,4.70
2022-10-19T19:50:56.490Z,5.03
2022-10-19T19:53:22.964Z,5.10
2022-10-19T19:55:49.922Z,5.10
2022-10-19T19:58:16.693Z,5.13
2022-10-19T20:00:43.632Z,4.55
2022-10-19T20:03:12.440Z,4.78
2022-10-19T20:05:41.487Z,4.88
2022-10-19T20:08:08.479Z,4.45
2022-10-19T20:10:41.962Z,4.05
2022-10-19T20:13:08.510Z,3.92
2022-10-19T20:15:40.729Z,3.80
2022-10-19T20:18:07.291Z,4.32
2022-10-19T20:20:36.104Z,3.40
2022-10-19T20:23:02.580Z,4.28
2022-10-19T20:25:29.027Z,4.95
2022-10-19T20:27:55.512Z,4.40
2022-10-19T20:30:21.988Z,42.45
2022-10-19T20:32:48.639Z,28.27
2022-10-19T20:35:15.219Z,20.27
2022-10-19T20:37:41.789Z,14.60
2022-10-19T20:40:09.044Z,12.35
2022-10-19T20:42:36.268Z,11.85
2022-10-19T20:45:03.846Z,8.68
2022-10-19T20:47:30.396Z,7.93
2022-10-19T20:49:57.123Z,7.40
2022-10-19T20:52:23.769Z,5.95
2022-10-19T20:54:50.215Z,6.40
2022-10-19T20:57:16.697Z,3.65
2022-10-19T20:59:44.156Z,4.07
2022-10-19T21:02:11.136Z,3.15
2022-10-19T21:04:37.819Z,3.17
2022-10-19T21:07:05.250Z,3.47
2022-10-19T21:09:32.141Z,3.63
2022-10-19T21:11:58.775Z,3.00
2022-10-19T21:14:28.594Z,3.55
2022-10-19T21:16:59.045Z,3.25
2022-10-19T21:19:26.616Z,3.25
2022-10-19T21:21:57.156Z,3.55
2022-10-19T21:24:25.126Z,3.83
2022-10-19T21:29:41.611Z,3.70
2022-10-19T21:32:08.179Z,4.20
2022-10-19T21:34:34.984Z,4.32
2022-10-19T21:37:01.628Z,3.80
2022-10-19T21:39:28.182Z,4.20
2022-10-19T21:41:55.166Z,4.20
2022-10-19T21:44:23.181Z,5.32
2022-10-19T21:46:52.591Z,3.92
2022-10-19T21:49:19.275Z,4.65
2022-10-19T21:51:54.076Z,4.53
2022-10-19T21:54:22.387Z,4.65
2022-10-19T21:56:49.286Z,5.03
2022-10-19T21:59:16.298Z,5.05
2022-10-19T22:01:43.014Z,4.57
2022-10-19T22:04:12.336Z,5.18
2022-10-19T22:06:39.449Z,5.05
2022-10-19T22:09:07.409Z,5.05
2022-10-19T22:11:34.222Z,5.05
2022-10-19T22:14:01.526Z,4.00
2022-10-19T22:16:28.589Z,4.70
2022-10-19T22:18:55.267Z,4.57
2022-10-19T22:21:26.185Z,3.97
2022-10-19T22:23:57.473Z,4.57
2022-10-19T22:26:25.147Z,5.65
2022-10-19T22:28:52.045Z,4.65
2022-10-19T22:31:19.084Z,5.22
2022-10-19T22:33:46.078Z,4.97
2022-10-19T22:36:13.643Z,4.35
2022-10-19T22:38:40.642Z,4.63
2022-10-19T22:41:07.290Z,5.68
2022-10-19T22:43:33.951Z,5.30
2022-10-19T22:46:00.492Z,4.25
2022-10-19T22:48:27.257Z,4.70
2022-10-19T22:50:57.258Z,5.15
2022-10-19T22:53:24.453Z,5.18
2022-10-19T22:55:51.060Z,4.22
2022-10-19T22:58:18.251Z,5.35
2022-10-19T23:00:44.927Z,5.05
2022-10-19T23:03:11.515Z,5.38
2022-10-19T23:05:38.005Z,4.45
2022-10-19T23:08:07.554Z,4.97
2022-10-19T23:10:34.159Z,4.20
2022-10-19T23:13:00.768Z,4.13
2022-10-19T23:15:27.291Z,4.75
2022-10-19T23:17:53.839Z,4.00
2022-10-19T23:20:20.488Z,4.57
2022-10-19T23:22:47.012Z,4.60
2022-10-19T23:25:13.562Z,4.32
2022-10-19T23:27:40.035Z,4.68
2022-10-19T23:30:07.232Z,4.65
2022-10-19T23:32:33.757Z,4.85
2022-10-19T23:35:00.325Z,4.40
2022-10-19T23:37:27.039Z,4.75
2022-10-19T23:39:53.500Z,4.13
2022-10-19T23:42:19.976Z,4.55
2022-10-19T23:44:46.455Z,4.78
2022-10-19T23:47:13.242Z,4.50
2022-10-19T23:49:39.757Z,3.73
2022-10-19T23:52:06.413Z,5.77
2022-10-19T23:54:32.932Z,3.87
2022-10-19T23:56:59.738Z,4.35
2022-10-19T23:59:26.199Z,4.20
